createdAt,value
2022-10-29T00:01:51.398Z,3.35
2022-10-29T00:04:38.497Z,3.70
2022-10-29T00:07:25.567Z,3.30
2022-10-29T00:10:12.592Z,3.72
2022-10-29T00:13:03.485Z,3.78
2022-10-29T00:15:50.594Z,3.40
2022-10-29T00:18:37.785Z,3.40
2022-10-29T00:21:25.891Z,3.85
2022-10-29T00:24:13.082Z,3.42
2022-10-29T00:27:00.169Z,4.05
2022-10-29T00:29:47.446Z,3.20
2022-10-29T00:32:34.507Z,3.65
2022-10-29T00:35:21.693Z,3.70
2022-10-29T00:38:08.788Z,3.42
2022-10-29T00:40:55.923Z,3.50
2022-10-29T00:44:32.643Z,3.42
2022-10-29T00:47:22.853Z,3.38
2022-10-29T00:50:13.848Z,3.60
2022-10-29T00:55:48.887Z,3.33
2022-10-29T00:58:36.015Z,3.60
2022-10-29T01:01:23.348Z,3.22
2022-10-29T01:04:11.873Z,3.85
2022-10-29T01:06:59.023Z,3.42
2022-10-29T01:09:46.374Z,3.28
2022-10-29T01:12:36.620Z,3.95
2022-10-29T01:15:40.845Z,3.40
2022-10-29T01:18:38.284Z,3.45
2022-10-29T01:21:39.226Z,3.20
2022-10-29T01:24:55.205Z,3.40
2022-10-29T01:27:52.033Z,4.10
2022-10-29T01:31:03.980Z,3.83
2022-10-29T01:34:00.210Z,3.60
2022-10-29T01:37:22.689Z,3.40
2022-10-29T01:40:18.828Z,3.72
2022-10-29T01:46:23.321Z,4.00
2022-10-29T01:49:17.867Z,4.73
2022-10-29T01:52:07.251Z,4.10
2022-10-29T01:54:54.681Z,3.58
2022-10-29T01:57:41.726Z,3.70
2022-10-29T02:00:35.643Z,3.30
2022-10-29T02:03:43.224Z,3.42
2022-10-29T02:06:42.394Z,3.83
2022-10-29T02:10:03.605Z,3.38
2022-10-29T02:15:44.691Z,3.53
2022-10-29T02:18:38.888Z,3.47
2022-10-29T02:21:26.143Z,3.50
2022-10-29T02:24:13.260Z,3.30
2022-10-29T02:27:00.452Z,4.05
2022-10-29T02:29:47.612Z,3.72
2022-10-29T02:32:34.740Z,3.60
2022-10-29T02:35:21.841Z,3.25
2022-10-29T02:38:08.888Z,3.60
2022-10-29T02:40:55.975Z,3.20
2022-10-29T02:43:43.004Z,3.15
2022-10-29T02:46:30.337Z,3.35
2022-10-29T02:49:17.516Z,3.97
2022-10-29T02:52:04.893Z,4.30
2022-10-29T02:54:52.017Z,4.13
2022-10-29T02:57:39.254Z,4.03
2022-10-29T03:00:26.349Z,4.18
2022-10-29T03:03:13.448Z,4.25
2022-10-29T03:06:00.560Z,3.42
2022-10-29T03:08:47.731Z,3.45
2022-10-29T03:11:34.870Z,3.60
2022-10-29T03:14:21.927Z,4.30
2022-10-29T03:17:09.317Z,3.78
2022-10-29T03:19:56.452Z,3.88
2022-10-29T03:22:43.577Z,4.88
2022-10-29T03:25:30.663Z,4.90
2022-10-29T03:28:18.447Z,4.57
2022-10-29T03:31:05.774Z,4.43
2022-10-29T03:33:52.843Z,4.38
2022-10-29T03:36:40.018Z,4.97
2022-10-29T03:39:27.237Z,5.20
2022-10-29T03:42:14.307Z,4.82
2022-10-29T03:45:02.238Z,4.57
2022-10-29T03:47:49.365Z,4.28
2022-10-29T03:50:36.449Z,5.18
2022-10-29T03:53:24.734Z,5.60
2022-10-29T03:56:11.809Z,5.95
2022-10-29T03:58:58.901Z,6.25
2022-10-29T04:01:46.076Z,6.13
2022-10-29T04:04:33.210Z,5.65
2022-10-29T04:07:20.271Z,4.82
2022-10-29T04:10:07.773Z,4.30
2022-10-29T04:12:55.173Z,4.47
2022-10-29T04:15:42.835Z,4.20
2022-10-29T04:18:29.940Z,6.70
2022-10-29T04:28:17.544Z,4.85
2022-10-29T04:30:40.162Z,5.95
2022-10-29T04:33:27.351Z,5.05
2022-10-29T04:36:14.478Z,5.13
2022-10-29T04:39:01.722Z,5.90
2022-10-29T04:41:49.731Z,5.38
2022-10-29T04:44:37.732Z,5.10
2022-10-29T04:47:24.869Z,4.78
2022-10-29T04:50:12.085Z,4.93
2022-10-29T04:53:03.766Z,4.55
2022-10-29T04:55:50.855Z,4.70
2022-10-29T04:58:38.080Z,4.50
2022-10-29T05:01:25.613Z,5.00
2022-10-29T05:04:13.737Z,4.75
2022-10-29T05:07:00.809Z,5.25
2022-10-29T05:09:47.852Z,4.88
2022-10-29T05:12:34.937Z,4.63
2022-10-29T05:15:21.962Z,4.82
2022-10-29T05:18:10.342Z,5.68
2022-10-29T05:20:57.819Z,5.72
2022-10-29T05:23:44.926Z,5.22
2022-10-29T05:53:59.532Z,5.28
2022-10-29T05:59:34.050Z,5.68
2022-10-29T06:02:21.363Z,5.50
2022-10-29T06:05:08.689Z,6.68
2022-10-29T06:14:29.533Z,7.43
2022-10-29T06:17:16.766Z,8.50
2022-10-29T06:20:04.119Z,7.80
2022-10-29T06:22:58.519Z,7.88
2022-10-29T06:25:45.834Z,8.43
2022-10-29T06:28:34.805Z,7.20
2022-10-29T06:31:22.127Z,7.18
2022-10-29T06:34:09.359Z,5.25
2022-10-29T06:36:59.535Z,5.75
2022-10-29T06:39:47.880Z,6.22
2022-10-29T06:42:35.034Z,6.13
2022-10-29T06:45:22.135Z,7.10
2022-10-29T06:48:09.354Z,7.32
2022-10-29T06:50:59.539Z,6.78
2022-10-29T06:53:46.652Z,6.23
2022-10-29T06:56:34.656Z,6.10
2022-10-29T06:59:23.463Z,6.85
2022-10-29T07:02:13.421Z,5.38
2022-10-29T07:05:03.905Z,6.75
2022-10-29T07:07:56.726Z,4.90
2022-10-29T07:10:44.406Z,5.50
2022-10-29T07:13:31.569Z,4.88
2022-10-29T07:16:50.999Z,5.43
2022-10-29T07:19:38.178Z,6.20
2022-10-29T07:22:25.353Z,5.50
2022-10-29T07:25:12.463Z,6.13
2022-10-29T07:28:07.722Z,5.97
2022-10-29T07:31:00.882Z,5.72
2022-10-29T07:33:47.983Z,6.88
2022-10-29T07:36:35.138Z,7.35
2022-10-29T07:39:22.796Z,5.55
2022-10-29T07:42:10.030Z,4.88
2022-10-29T07:44:57.341Z,4.43
2022-10-29T07:47:44.490Z,5.78
2022-10-29T07:50:31.947Z,6.35
2022-10-29T07:53:19.329Z,4.43
2022-10-29T07:56:06.648Z,6.43
2022-10-29T07:58:53.756Z,2.75
2022-10-29T08:01:41.327Z,3.25
2022-10-29T08:04:28.515Z,2.95
2022-10-29T08:07:15.762Z,2.83
2022-10-29T08:10:03.264Z,2.80
2022-10-29T08:12:56.537Z,2.95
2022-10-29T08:15:46.583Z,3.28
2022-10-29T08:18:33.850Z,2.75
2022-10-29T08:21:22.027Z,2.95
2022-10-29T08:24:10.097Z,3.38
2022-10-29T08:27:00.376Z,2.90
2022-10-29T08:29:47.454Z,2.60
2022-10-29T08:32:35.616Z,2.90
2022-10-29T08:35:23.246Z,2.78
2022-10-29T08:38:10.435Z,2.67
2022-10-29T08:41:21.916Z,3.42
2022-10-29T08:44:32.619Z,3.20
2022-10-29T08:47:22.134Z,2.90
2022-10-29T08:50:33.142Z,2.80
2022-10-29T08:53:30.030Z,3.38
2022-10-29T08:56:35.812Z,2.95
2022-10-29T08:59:24.822Z,3.33
2022-10-29T09:02:18.420Z,2.88
2022-10-29T09:05:06.511Z,2.85
2022-10-29T09:08:22.563Z,3.22
2022-10-29T09:11:31.098Z,3.10
2022-10-29T09:14:33.243Z,2.85
2022-10-29T09:17:43.164Z,2.72
2022-10-29T09:20:33.358Z,2.88
2022-10-29T09:23:57.627Z,3.10
2022-10-29T09:27:08.224Z,2.80
2022-10-29T09:30:01.879Z,3.08
2022-10-29T09:33:24.956Z,2.63
2022-10-29T09:36:18.158Z,2.90
2022-10-29T09:39:33.115Z,2.58
2022-10-29T09:42:35.849Z,3.08
2022-10-29T09:45:28.828Z,3.20
2022-10-29T09:48:40.706Z,2.88
2022-10-29T09:51:38.154Z,3.30
2022-10-29T09:54:27.954Z,2.88
2022-10-29T09:57:22.706Z,2.83
2022-10-29T10:00:21.812Z,2.60
2022-10-29T10:03:30.159Z,2.60
2022-10-29T10:06:17.347Z,2.58
2022-10-29T10:09:05.820Z,3.47
2022-10-29T10:11:54.162Z,2.80
2022-10-29T10:14:41.279Z,2.83
2022-10-29T10:17:28.450Z,2.72
2022-10-29T10:20:30.856Z,3.10
2022-10-29T10:23:39.627Z,2.63
2022-10-29T10:26:40.173Z,2.90
2022-10-29T10:29:28.183Z,3.10
2022-10-29T10:32:16.476Z,2.70
2022-10-29T10:35:21.999Z,3.10
2022-10-29T10:38:09.977Z,2.85
2022-10-29T10:41:04.283Z,2.80
2022-10-29T10:43:55.168Z,3.03
2022-10-29T10:46:44.788Z,3.03
2022-10-29T10:49:38.798Z,2.80
2022-10-29T10:52:30.389Z,3.50
2022-10-29T10:55:26.810Z,2.90
2022-10-29T10:58:27.479Z,2.97
2022-10-29T11:01:29.759Z,2.90
2022-10-29T11:04:34.334Z,2.70
2022-10-29T11:07:24.468Z,3.20
2022-10-29T11:10:13.425Z,3.05
2022-10-29T11:13:05.881Z,2.92
2022-10-29T11:16:07.264Z,3.00
2022-10-29T11:19:01.031Z,2.80
2022-10-29T11:22:14.215Z,2.80
2022-10-29T11:25:16.196Z,3.47
2022-10-29T11:28:47.425Z,2.85
2022-10-29T11:31:43.119Z,2.90
2022-10-29T11:34:59.107Z,3.00
2022-10-29T11:37:58.992Z,3.30
2022-10-29T11:40:54.813Z,2.90
2022-10-29T11:43:42.096Z,2.72
2022-10-29T11:46:35.584Z,3.00
2022-10-29T11:49:50.514Z,2.70
2022-10-29T11:52:56.525Z,2.70
2022-10-29T11:56:17.471Z,2.75
2022-10-29T11:59:32.664Z,2.63
2022-10-29T12:03:01.829Z,2.95
2022-10-29T12:06:25.721Z,2.80
2022-10-29T12:09:28.146Z,2.80
2022-10-29T12:12:43.615Z,2.75
2022-10-29T12:15:36.855Z,3.03
2022-10-29T12:18:36.100Z,3.13
2022-10-29T12:21:38.545Z,2.78
2022-10-29T12:25:03.082Z,3.05
2022-10-29T12:28:02.541Z,2.90
2022-10-29T12:30:58.880Z,2.83
2022-10-29T12:33:58.408Z,3.17
2022-10-29T12:37:05.648Z,2.45
2022-10-29T12:40:01.874Z,2.70
2022-10-29T12:42:50.723Z,2.78
2022-10-29T12:46:19.564Z,2.90
2022-10-29T12:49:48.835Z,2.63
2022-10-29T12:52:46.041Z,2.97
2022-10-29T12:55:34.933Z,2.60
2022-10-29T12:58:41.031Z,3.10
2022-10-29T13:01:57.523Z,2.47
2022-10-29T13:04:38.092Z,2.38
2022-10-29T13:07:25.462Z,2.95
2022-10-29T13:10:32.841Z,2.75
2022-10-29T13:13:38.162Z,2.72
2022-10-29T13:16:28.375Z,2.90
2022-10-29T13:19:29.368Z,2.83
2022-10-29T13:22:16.404Z,2.60
2022-10-29T13:25:30.148Z,3.00
2022-10-29T13:28:17.209Z,2.80
2022-10-29T13:31:04.347Z,2.92
2022-10-29T13:33:52.857Z,2.53
2022-10-29T13:36:40.248Z,2.65
2022-10-29T13:39:27.375Z,4.18
2022-10-29T13:42:14.684Z,3.17
2022-10-29T13:45:02.096Z,3.00
2022-10-29T13:47:49.905Z,2.92
2022-10-29T13:50:39.119Z,2.58
2022-10-29T13:53:41.251Z,2.78
2022-10-29T13:56:50.820Z,3.20
2022-10-29T13:59:59.376Z,2.83
2022-10-29T14:03:01.739Z,2.78
2022-10-29T14:06:00.089Z,2.95
2022-10-29T14:12:21.114Z,3.03
2022-10-29T14:15:14.816Z,2.58
2022-10-29T14:18:37.824Z,2.90
2022-10-29T14:21:26.220Z,2.88
2022-10-29T14:24:16.240Z,2.45
2022-10-29T14:27:07.802Z,2.53
2022-10-29T14:30:12.845Z,3.10
2022-10-29T14:32:59.991Z,2.72
2022-10-29T14:35:47.551Z,2.35
2022-10-29T14:38:43.077Z,2.40
2022-10-29T14:41:31.575Z,2.58
2022-10-29T14:44:20.710Z,2.38
2022-10-29T14:47:26.597Z,2.58
2022-10-29T14:50:18.567Z,3.10
2022-10-29T14:53:17.697Z,2.92
2022-10-29T14:56:11.510Z,3.38
2022-10-29T14:58:59.437Z,2.63
2022-10-29T15:01:53.989Z,2.58
2022-10-29T15:04:57.307Z,2.47
2022-10-29T15:07:44.430Z,2.92
2022-10-29T15:10:32.025Z,2.97
2022-10-29T15:13:28.151Z,3.08
2022-10-29T15:16:21.056Z,2.85
2022-10-29T15:19:14.930Z,2.75
2022-10-29T15:22:08.713Z,2.67
2022-10-29T15:24:56.508Z,2.65
2022-10-29T15:27:43.720Z,2.90
2022-10-29T15:30:34.303Z,2.90
2022-10-29T15:33:27.072Z,2.83
2022-10-29T15:36:14.188Z,2.70
2022-10-29T15:39:18.895Z,3.05
2022-10-29T15:42:20.737Z,2.90
2022-10-29T15:45:08.287Z,3.40
2022-10-29T15:48:29.339Z,3.13
2022-10-29T15:51:16.702Z,2.80
2022-10-29T15:54:03.897Z,2.78
2022-10-29T15:56:51.367Z,3.38
2022-10-29T15:59:39.676Z,2.65
2022-10-29T16:02:27.033Z,3.03
2022-10-29T16:05:15.004Z,2.70
2022-10-29T16:08:03.678Z,3.00
2022-10-29T16:10:51.286Z,2.90
2022-10-29T16:13:39.254Z,2.80
2022-10-29T16:16:30.547Z,2.75
2022-10-29T16:19:17.797Z,3.08
2022-10-29T16:22:05.499Z,2.53
2022-10-29T16:24:52.563Z,3.35
2022-10-29T16:27:39.684Z,4.32
2022-10-29T16:30:26.892Z,4.65
2022-10-29T16:33:14.099Z,4.90
2022-10-29T16:36:01.182Z,5.00
2022-10-29T16:38:48.364Z,6.40
2022-10-29T16:41:35.653Z,5.47
2022-10-29T16:44:23.360Z,5.85
2022-10-29T16:47:10.413Z,5.50
2022-10-29T16:49:57.831Z,4.85
2022-10-29T16:52:45.260Z,5.18
2022-10-29T16:55:34.833Z,5.88
2022-10-29T16:58:22.397Z,5.60
2022-10-29T17:01:12.693Z,5.47
2022-10-29T17:04:00.229Z,5.07
2022-10-29T17:06:47.529Z,5.25
2022-10-29T17:09:36.987Z,5.13
2022-10-29T17:12:24.212Z,5.47
2022-10-29T17:15:11.360Z,8.82
2022-10-29T17:17:58.948Z,4.90
2022-10-29T17:21:00.477Z,6.18
2022-10-29T17:23:47.765Z,4.50
2022-10-29T17:26:34.948Z,3.78
2022-10-29T17:29:22.118Z,3.78
2022-10-29T17:32:09.280Z,3.58
2022-10-29T17:34:56.407Z,3.10
2022-10-29T17:37:43.524Z,3.10
2022-10-29T17:40:30.742Z,3.13
2022-10-29T17:43:17.947Z,3.08
2022-10-29T17:46:05.288Z,2.90
2022-10-29T17:48:57.904Z,3.20
2022-10-29T17:51:45.059Z,4.30
2022-10-29T17:54:34.956Z,3.55
2022-10-29T17:57:22.334Z,3.88
2022-10-29T18:00:10.222Z,6.85
2022-10-29T18:05:47.116Z,4.63
2022-10-29T18:08:36.764Z,4.05
2022-10-29T18:11:25.044Z,3.10
2022-10-29T18:14:12.167Z,3.25
2022-10-29T18:16:59.277Z,2.65
2022-10-29T18:19:46.450Z,2.75
2022-10-29T18:22:33.644Z,2.63
2022-10-29T18:25:20.869Z,2.67
2022-10-29T18:28:08.024Z,2.97
2022-10-29T18:30:55.148Z,2.75
2022-10-29T18:33:42.495Z,3.10
2022-10-29T18:36:29.743Z,2.97
2022-10-29T18:39:16.844Z,3.00
2022-10-29T18:42:04.148Z,3.60
2022-10-29T18:44:51.288Z,3.10
2022-10-29T18:47:38.398Z,3.20
2022-10-29T18:50:25.644Z,3.25
2022-10-29T18:53:12.851Z,2.70
2022-10-29T18:56:00.021Z,2.90
2022-10-29T18:58:47.538Z,2.45
2022-10-29T19:01:36.537Z,3.42
2022-10-29T19:04:23.811Z,3.40
2022-10-29T19:07:10.907Z,2.83
2022-10-29T19:09:58.219Z,2.70
2022-10-29T19:12:45.798Z,3.58
2022-10-29T19:15:37.297Z,2.65
2022-10-29T19:18:24.428Z,3.10
2022-10-29T19:21:17.426Z,3.28
2022-10-29T19:24:05.980Z,3.55
2022-10-29T19:26:53.260Z,2.90
2022-10-29T19:29:40.497Z,3.10
2022-10-29T19:32:27.584Z,3.20
2022-10-29T19:35:14.777Z,3.33
2022-10-29T19:38:01.859Z,2.95
2022-10-29T19:40:49.081Z,2.70
2022-10-29T19:43:36.195Z,2.85
2022-10-29T19:46:24.174Z,3.10
2022-10-29T19:49:11.482Z,3.22
2022-10-29T19:51:59.876Z,2.90
2022-10-29T19:54:47.085Z,3.53
2022-10-29T19:57:34.251Z,3.53
2022-10-29T20:00:21.411Z,3.25
2022-10-29T20:03:08.610Z,2.85
2022-10-29T20:05:56.113Z,3.42
2022-10-29T20:08:43.400Z,3.00
2022-10-29T20:11:30.623Z,3.03
2022-10-29T20:14:17.797Z,3.38
2022-10-29T20:17:04.930Z,3.22
2022-10-29T20:19:52.049Z,3.05
2022-10-29T20:22:39.336Z,3.28
2022-10-29T20:25:26.668Z,2.88
2022-10-29T20:28:15.031Z,3.38
2022-10-29T20:31:18.043Z,2.70
2022-10-29T20:34:05.372Z,3.25
2022-10-29T20:36:52.575Z,3.30
2022-10-29T20:39:40.310Z,3.22
2022-10-29T20:42:27.528Z,3.15
2022-10-29T20:45:14.821Z,2.97
2022-10-29T20:48:03.063Z,3.55
2022-10-29T20:50:53.499Z,2.88
2022-10-29T20:53:41.288Z,3.78
2022-10-29T20:56:28.578Z,3.42
2022-10-29T20:59:15.734Z,3.17
2022-10-29T21:02:03.362Z,3.80
2022-10-29T21:04:50.620Z,3.20
2022-10-29T21:07:39.533Z,3.30
2022-10-29T21:10:26.749Z,2.80
2022-10-29T21:13:14.024Z,3.50
2022-10-29T21:16:12.823Z,3.10
2022-10-29T21:19:01.916Z,3.13
2022-10-29T21:21:49.184Z,3.05
2022-10-29T21:24:38.281Z,3.20
2022-10-29T21:27:27.617Z,2.78
2022-10-29T21:30:14.861Z,3.47
2022-10-29T21:33:02.422Z,3.00
2022-10-29T21:35:54.284Z,3.13
2022-10-29T21:38:41.992Z,3.03
2022-10-29T21:41:29.122Z,3.42
2022-10-29T21:44:16.467Z,3.10
2022-10-29T21:47:03.881Z,2.90
2022-10-29T21:49:51.976Z,3.25
2022-10-29T21:52:40.323Z,3.20
2022-10-29T21:55:28.966Z,3.20
2022-10-29T21:58:16.212Z,3.47
2022-10-29T22:01:05.001Z,3.28
2022-10-29T22:03:52.319Z,3.53
2022-10-29T22:06:39.474Z,3.20
2022-10-29T22:09:26.586Z,3.30
2022-10-29T22:12:13.833Z,3.30
2022-10-29T22:15:01.081Z,3.30
2022-10-29T22:17:48.367Z,3.03
2022-10-29T22:20:35.742Z,3.20
2022-10-29T22:23:22.997Z,3.20
2022-10-29T22:26:10.567Z,3.58
2022-10-29T22:28:57.832Z,3.20
2022-10-29T22:31:45.012Z,3.38
2022-10-29T22:34:32.441Z,3.30
2022-10-29T22:37:19.822Z,2.92
2022-10-29T22:40:07.911Z,3.03
2022-10-29T22:42:55.443Z,3.33
2022-10-29T22:45:45.110Z,3.35
2022-10-29T22:48:32.851Z,3.10
2022-10-29T22:51:26.382Z,3.30
2022-10-29T22:54:13.533Z,2.88
2022-10-29T22:57:00.647Z,3.22
2022-10-29T22:59:47.702Z,3.05
2022-10-29T23:02:35.196Z,3.22
2022-10-29T23:05:22.706Z,2.90
2022-10-29T23:08:09.992Z,2.90
2022-10-29T23:10:57.180Z,2.92
2022-10-29T23:13:44.250Z,3.10
2022-10-29T23:16:33.201Z,3.15
2022-10-29T23:19:02.549Z,3.40
2022-10-29T23:21:33.185Z,3.25
2022-10-29T23:24:20.366Z,2.80
2022-10-29T23:27:07.493Z,2.55
2022-10-29T23:29:55.887Z,2.72
2022-10-29T23:32:42.987Z,2.83
2022-10-29T23:35:30.185Z,2.80
2022-10-29T23:38:17.996Z,2.80
2022-10-29T23:41:05.772Z,2.90
2022-10-29T23:43:52.994Z,2.90
2022-10-29T23:46:40.099Z,3.10
2022-10-29T23:49:27.880Z,3.28
2022-10-29T23:52:15.279Z,2.60
2022-10-29T23:55:02.451Z,3.10
2022-10-29T23:57:49.580Z,3.08
